createdAt,value
2022-11-09T00:01:04.963Z,2.30
2022-11-09T00:03:32.549Z,2.17
2022-11-09T00:06:01.334Z,2.22
2022-11-09T00:08:29.651Z,2.25
2022-11-09T00:11:03.860Z,2.40
2022-11-09T00:13:31.969Z,2.15
2022-11-09T00:16:00.245Z,2.50
2022-11-09T00:18:28.552Z,2.53
2022-11-09T00:20:56.196Z,2.15
2022-11-09T00:23:24.165Z,2.30
2022-11-09T00:25:51.570Z,2.75
2022-11-09T00:28:19.100Z,2.50
2022-11-09T00:30:46.532Z,2.72
2022-11-09T00:33:14.097Z,3.05
2022-11-09T00:35:41.610Z,2.83
2022-11-09T00:38:09.600Z,2.97
2022-11-09T00:40:37.459Z,2.75
2022-11-09T00:43:05.144Z,2.83
2022-11-09T00:45:32.693Z,2.75
2022-11-09T00:48:00.120Z,3.13
2022-11-09T00:50:27.672Z,2.63
2022-11-09T00:52:55.299Z,3.20
2022-11-09T00:55:24.124Z,3.00
2022-11-09T00:57:51.999Z,2.90
2022-11-09T01:00:21.378Z,3.10
2022-11-09T01:02:50.587Z,2.80
2022-11-09T01:05:18.278Z,2.70
2022-11-09T01:07:46.143Z,3.33
2022-11-09T01:10:13.624Z,2.85
2022-11-09T01:12:41.109Z,3.13
2022-11-09T01:15:09.462Z,3.15
2022-11-09T01:17:37.103Z,3.40
2022-11-09T01:20:04.838Z,3.10
2022-11-09T01:22:32.242Z,3.42
2022-11-09T01:24:59.647Z,3.72
2022-11-09T01:27:27.080Z,4.47
2022-11-09T01:29:54.614Z,4.05
2022-11-09T01:32:22.362Z,4.80
2022-11-09T01:34:49.906Z,4.82
2022-11-09T01:37:17.458Z,4.93
2022-11-09T01:39:45.216Z,4.55
2022-11-09T01:42:12.652Z,5.32
2022-11-09T01:44:40.076Z,4.65
2022-11-09T01:47:23.569Z,5.38
2022-11-09T01:50:00.336Z,5.03
2022-11-09T01:52:41.432Z,4.55
2022-11-09T01:55:22.071Z,4.93
2022-11-09T01:57:57.329Z,4.55
2022-11-09T02:00:24.888Z,4.50
2022-11-09T02:03:02.044Z,4.80
2022-11-09T02:05:33.087Z,4.78
2022-11-09T02:08:02.667Z,4.50
2022-11-09T02:10:53.243Z,4.80
2022-11-09T02:13:23.111Z,4.65
2022-11-09T02:15:51.458Z,4.63
2022-11-09T02:18:19.794Z,4.47
2022-11-09T02:20:53.720Z,4.65
2022-11-09T02:23:21.993Z,3.97
2022-11-09T02:26:05.426Z,4.60
2022-11-09T02:28:33.541Z,5.30
2022-11-09T02:31:02.632Z,4.53
2022-11-09T02:33:30.118Z,4.82
2022-11-09T02:35:57.455Z,4.78
2022-11-09T02:38:24.821Z,5.20
2022-11-09T02:40:53.328Z,4.68
2022-11-09T02:43:21.133Z,4.68
2022-11-09T02:45:48.676Z,5.10
2022-11-09T02:48:16.335Z,4.78
2022-11-09T02:50:43.823Z,4.88
2022-11-09T02:53:11.212Z,5.10
2022-11-09T02:55:38.926Z,4.30
2022-11-09T02:58:06.433Z,4.20
2022-11-09T03:00:33.744Z,4.70
2022-11-09T03:03:01.209Z,4.50
2022-11-09T03:05:28.718Z,4.50
2022-11-09T03:07:56.804Z,4.28
2022-11-09T03:10:24.275Z,4.28
2022-11-09T03:12:51.753Z,4.63
2022-11-09T03:15:19.299Z,4.00
2022-11-09T03:17:46.924Z,3.92
2022-11-09T03:20:14.446Z,4.05
2022-11-09T03:22:41.792Z,4.35
2022-11-09T03:25:09.459Z,3.55
2022-11-09T03:27:36.947Z,4.40
2022-11-09T03:30:04.815Z,3.80
2022-11-09T03:32:32.147Z,4.32
2022-11-09T03:34:59.614Z,3.80
2022-11-09T03:37:27.384Z,4.00
2022-11-09T03:39:54.755Z,4.10
2022-11-09T03:42:22.245Z,4.30
2022-11-09T03:44:49.701Z,3.95
2022-11-09T03:47:17.193Z,3.55
2022-11-09T03:49:44.693Z,3.65
2022-11-09T03:52:12.182Z,4.05
2022-11-09T03:54:39.553Z,4.32
2022-11-09T03:57:07.244Z,4.53
2022-11-09T03:59:34.582Z,4.05
2022-11-09T04:02:02.046Z,4.13
2022-11-09T04:04:29.534Z,3.97
2022-11-09T04:06:57.021Z,4.07
2022-11-09T04:09:24.395Z,3.83
2022-11-09T04:11:51.766Z,4.35
2022-11-09T04:14:19.217Z,4.35
2022-11-09T04:16:46.544Z,4.30
2022-11-09T04:19:13.969Z,4.30
2022-11-09T04:21:41.436Z,4.43
2022-11-09T04:24:08.930Z,4.32
2022-11-09T04:26:36.301Z,4.35
2022-11-09T04:29:03.870Z,4.40
2022-11-09T04:31:31.207Z,3.95
2022-11-09T04:33:58.707Z,3.67
2022-11-09T04:36:26.137Z,3.25
2022-11-09T04:38:53.493Z,4.40
2022-11-09T04:41:20.987Z,3.92
2022-11-09T04:43:48.539Z,4.15
2022-11-09T04:46:15.936Z,3.95
2022-11-09T04:48:44.498Z,4.07
2022-11-09T04:51:12.138Z,4.22
2022-11-09T04:53:40.744Z,4.47
2022-11-09T04:56:08.869Z,4.07
2022-11-09T04:58:36.522Z,4.63
2022-11-09T05:01:10.982Z,4.60
2022-11-09T05:03:39.398Z,5.10
2022-11-09T05:06:26.357Z,4.53
2022-11-09T05:08:54.712Z,5.45
2022-11-09T05:11:23.447Z,4.60
2022-11-09T05:13:53.991Z,4.60
2022-11-09T05:16:23.198Z,4.55
2022-11-09T05:18:51.036Z,4.28
2022-11-09T05:21:18.867Z,4.72
2022-11-09T05:24:03.078Z,4.80
2022-11-09T05:26:38.054Z,4.70
2022-11-09T05:29:08.347Z,4.65
2022-11-09T05:31:37.998Z,4.32
2022-11-09T05:34:07.185Z,3.72
2022-11-09T05:36:34.687Z,3.33
2022-11-09T05:39:02.033Z,3.55
2022-11-09T05:41:29.617Z,3.60
2022-11-09T05:43:57.104Z,3.47
2022-11-09T05:46:25.323Z,3.92
2022-11-09T05:48:52.796Z,3.50
2022-11-09T05:51:20.226Z,3.85
2022-11-09T05:53:47.604Z,3.83
2022-11-09T05:56:15.657Z,3.60
2022-11-09T05:58:43.549Z,3.92
2022-11-09T06:01:17.643Z,4.18
2022-11-09T06:03:46.679Z,4.57
2022-11-09T06:06:16.786Z,5.18
2022-11-09T06:08:48.784Z,4.53
2022-11-09T06:11:36.895Z,4.90
2022-11-09T06:21:13.866Z,4.78
2022-11-09T06:24:36.231Z,5.80
2022-11-09T06:27:08.912Z,5.63
2022-11-09T06:29:37.225Z,6.10
2022-11-09T06:32:33.118Z,6.55
2022-11-09T06:35:00.851Z,5.82
2022-11-09T06:37:30.106Z,6.22
2022-11-09T06:39:59.202Z,6.63
2022-11-09T06:42:29.156Z,6.50
2022-11-09T06:45:02.718Z,6.95
2022-11-09T06:47:30.599Z,6.75
2022-11-09T06:49:58.530Z,7.88
2022-11-09T06:52:26.412Z,8.20
2022-11-09T06:54:55.533Z,7.80
2022-11-09T06:57:23.471Z,12.68
2022-11-09T06:59:52.729Z,7.63
2022-11-09T07:02:23.506Z,11.55
2022-11-09T07:04:54.168Z,11.73
2022-11-09T07:07:27.372Z,9.05
2022-11-09T07:09:56.241Z,10.55
2022-11-09T07:12:25.960Z,13.27
2022-11-09T07:14:53.576Z,12.25
2022-11-09T07:17:35.765Z,11.18
2022-11-09T07:20:34.553Z,9.90
2022-11-09T07:23:03.111Z,10.50
2022-11-09T07:25:36.397Z,11.30
2022-11-09T07:28:09.170Z,10.45
2022-11-09T07:30:48.114Z,12.20
2022-11-09T07:33:23.143Z,11.23
2022-11-09T07:35:51.974Z,12.50
2022-11-09T07:38:20.852Z,12.77
2022-11-09T07:40:50.237Z,11.13
2022-11-09T07:43:18.777Z,10.48
2022-11-09T07:45:58.358Z,11.48
2022-11-09T07:48:28.568Z,13.45
2022-11-09T07:51:11.076Z,13.45
2022-11-09T07:53:39.359Z,14.10
2022-11-09T07:56:12.604Z,13.57
2022-11-09T07:58:41.550Z,12.75
2022-11-09T08:04:29.242Z,13.68
2022-11-09T08:06:57.671Z,10.93
2022-11-09T08:09:26.730Z,13.25
2022-11-09T08:12:02.337Z,12.32
2022-11-09T08:17:35.240Z,13.82
2022-11-09T08:20:13.102Z,13.15
2022-11-09T08:22:45.989Z,14.40
2022-11-09T08:28:15.077Z,12.38
2022-11-09T08:30:59.427Z,12.75
2022-11-09T08:36:49.370Z,11.18
2022-11-09T08:39:25.302Z,12.07
2022-11-09T08:42:22.265Z,11.52
2022-11-09T08:45:05.846Z,12.77
2022-11-09T08:47:40.919Z,11.40
2022-11-09T08:53:11.581Z,10.38
2022-11-09T08:58:59.901Z,9.25
2022-11-09T09:01:28.888Z,9.10
2022-11-09T09:03:59.891Z,10.13
2022-11-09T09:06:31.269Z,10.43
2022-11-09T09:08:59.385Z,10.88
2022-11-09T09:11:28.312Z,10.63
2022-11-09T09:14:02.227Z,10.98
2022-11-09T09:19:55.051Z,7.70
2022-11-09T09:22:24.233Z,8.90
2022-11-09T09:24:59.969Z,9.18
2022-11-09T09:30:12.982Z,11.68
2022-11-09T09:33:07.266Z,11.55
2022-11-09T09:35:57.347Z,11.63
2022-11-09T09:41:59.497Z,9.80
2022-11-09T09:48:26.373Z,12.20
2022-11-09T09:51:15.952Z,11.02
2022-11-09T09:54:00.774Z,10.93
2022-11-09T09:56:50.238Z,10.45
2022-11-09T10:00:04.379Z,9.63
2022-11-09T10:03:23.441Z,9.63
2022-11-09T10:09:27.388Z,9.55
2022-11-09T10:19:06.726Z,9.85
2022-11-09T10:22:03.473Z,8.57
2022-11-09T10:27:52.800Z,8.98
2022-11-09T10:30:25.924Z,9.27
2022-11-09T10:33:25.754Z,10.48
2022-11-09T10:36:53.410Z,10.30
2022-11-09T10:42:13.037Z,11.80
2022-11-09T10:50:56.287Z,13.60
2022-11-09T10:56:33.035Z,14.65
2022-11-09T11:09:25.338Z,15.68
2022-11-09T11:16:00.557Z,15.85
2022-11-09T11:19:07.549Z,17.33
2022-11-09T11:25:45.164Z,16.08
2022-11-09T11:42:03.630Z,18.58
2022-11-09T11:44:59.461Z,17.40
2022-11-09T11:48:26.508Z,17.25
2022-11-09T11:51:21.608Z,16.10
2022-11-09T11:54:15.691Z,17.60
2022-11-09T11:57:05.781Z,18.23
2022-11-09T12:00:08.012Z,17.85
2022-11-09T12:03:03.023Z,17.80
2022-11-09T12:06:10.953Z,18.27
2022-11-09T12:08:49.682Z,19.73
2022-11-09T12:11:43.603Z,20.33
2022-11-09T12:14:35.077Z,19.00
2022-11-09T12:17:12.254Z,19.90
2022-11-09T12:20:06.488Z,21.27
2022-11-09T12:22:45.851Z,20.90
2022-11-09T12:26:14.844Z,20.50
2022-11-09T12:29:17.376Z,20.40
2022-11-09T12:31:55.990Z,20.35
2022-11-09T12:35:15.546Z,20.75
2022-11-09T12:38:06.539Z,19.63
2022-11-09T12:40:39.404Z,18.88
2022-11-09T12:43:39.986Z,19.83
2022-11-09T12:46:10.486Z,19.85
2022-11-09T12:48:40.111Z,18.77
2022-11-09T12:51:09.120Z,21.88
2022-11-09T12:53:40.047Z,21.20
2022-11-09T12:56:57.034Z,16.10
2022-11-09T12:59:27.233Z,20.15
2022-11-09T13:01:57.510Z,19.48
2022-11-09T13:04:26.390Z,21.10
2022-11-09T13:07:20.577Z,19.50
2022-11-09T13:09:55.420Z,18.75
2022-11-09T13:12:39.794Z,19.77
2022-11-09T13:15:26.644Z,18.80
2022-11-09T13:18:02.465Z,16.75
2022-11-09T13:20:54.614Z,19.17
2022-11-09T13:24:00.868Z,14.65
2022-11-09T13:26:32.970Z,19.73
2022-11-09T13:29:09.383Z,18.30
2022-11-09T13:32:02.336Z,17.48
2022-11-09T13:34:55.794Z,17.98
2022-11-09T13:37:41.910Z,18.77
2022-11-09T13:40:31.368Z,17.63
2022-11-09T13:43:10.496Z,16.88
2022-11-09T13:45:46.731Z,14.35
2022-11-09T13:48:42.172Z,18.60
2022-11-09T13:51:39.556Z,17.70
2022-11-09T13:54:28.705Z,17.58
2022-11-09T13:57:07.496Z,17.48
2022-11-09T13:59:47.647Z,17.25
2022-11-09T14:02:24.167Z,16.92
2022-11-09T14:04:51.560Z,17.85
2022-11-09T14:07:33.126Z,18.35
2022-11-09T14:10:07.872Z,18.27
2022-11-09T14:13:05.471Z,17.17
2022-11-09T14:15:51.821Z,17.08
2022-11-09T14:18:49.592Z,13.18
2022-11-09T14:21:43.812Z,16.05
2022-11-09T14:24:17.339Z,17.30
2022-11-09T14:27:05.229Z,16.08
2022-11-09T14:29:33.370Z,18.33
2022-11-09T14:32:22.332Z,18.92
2022-11-09T14:34:49.745Z,18.25
2022-11-09T14:37:17.867Z,17.13
2022-11-09T14:39:50.213Z,18.30
2022-11-09T14:42:20.881Z,18.00
2022-11-09T14:44:49.495Z,17.40
2022-11-09T14:47:19.943Z,18.30
2022-11-09T14:49:48.306Z,18.58
2022-11-09T14:52:24.679Z,18.98
2022-11-09T14:54:53.227Z,17.50
2022-11-09T14:57:22.002Z,18.30
2022-11-09T14:59:49.673Z,18.17
2022-11-09T15:02:19.939Z,17.58
2022-11-09T15:05:03.078Z,15.45
2022-11-09T15:07:35.508Z,17.95
2022-11-09T15:10:06.653Z,18.05
2022-11-09T15:12:39.215Z,17.67
2022-11-09T15:20:45.863Z,15.30
2022-11-09T15:23:51.965Z,17.52
2022-11-09T15:26:36.958Z,17.23
2022-11-09T15:29:36.840Z,17.77
2022-11-09T15:32:20.686Z,18.00
2022-11-09T15:35:16.762Z,17.08
2022-11-09T15:37:50.971Z,18.45
2022-11-09T15:40:24.580Z,19.25
2022-11-09T15:42:55.586Z,19.98
2022-11-09T15:45:23.306Z,18.38
2022-11-09T15:50:40.269Z,19.02
2022-11-09T15:53:10.005Z,19.17
2022-11-09T15:55:42.373Z,17.90
2022-11-09T15:58:19.614Z,18.85
2022-11-09T16:03:31.528Z,19.27
2022-11-09T16:06:03.386Z,17.02
2022-11-09T16:11:12.930Z,17.65
2022-11-09T16:13:40.808Z,18.77
2022-11-09T16:16:09.997Z,18.92
2022-11-09T16:18:38.681Z,18.75
2022-11-09T16:21:12.746Z,17.88
2022-11-09T16:23:45.217Z,18.55
2022-11-09T16:26:19.029Z,17.58
2022-11-09T16:28:47.383Z,19.90
2022-11-09T16:31:15.300Z,18.08
2022-11-09T16:33:44.875Z,18.27
2022-11-09T16:39:20.044Z,19.77
2022-11-09T16:41:55.407Z,21.48
2022-11-09T16:44:38.443Z,17.30
2022-11-09T16:47:17.972Z,19.23
2022-11-09T16:52:35.558Z,17.35
2022-11-09T16:55:10.825Z,18.65
2022-11-09T16:57:38.421Z,16.83
2022-11-09T17:00:08.883Z,19.20
2022-11-09T17:08:06.968Z,19.65
2022-11-09T17:13:21.949Z,18.70
2022-11-09T17:15:52.906Z,16.35
2022-11-09T17:18:32.104Z,18.88
2022-11-09T17:21:01.305Z,18.15
2022-11-09T17:23:34.333Z,19.85
2022-11-09T17:26:03.968Z,18.05
2022-11-09T17:28:37.645Z,18.77
2022-11-09T17:31:25.961Z,20.17
2022-11-09T17:34:01.111Z,18.65
2022-11-09T17:47:20.884Z,17.15
2022-11-09T17:56:32.031Z,16.65
2022-11-09T17:59:06.666Z,16.48
2022-11-09T18:01:41.162Z,16.90
2022-11-09T18:09:45.295Z,17.15
2022-11-09T18:12:14.397Z,16.45
2022-11-09T18:17:26.984Z,15.43
2022-11-09T18:22:50.801Z,14.65
2022-11-09T18:30:46.497Z,12.90
2022-11-09T18:33:14.532Z,14.52
2022-11-09T18:35:42.624Z,14.13
2022-11-09T18:38:36.668Z,13.63
2022-11-09T18:41:10.916Z,11.73
2022-11-09T18:43:40.266Z,13.63
2022-11-09T18:46:12.982Z,13.48
2022-11-09T19:09:27.294Z,12.40
2022-11-09T19:11:58.598Z,11.65
2022-11-09T19:14:54.468Z,13.38
2022-11-09T19:17:25.516Z,13.55
2022-11-09T19:22:39.359Z,13.65
2022-11-09T19:25:08.501Z,15.50
2022-11-09T19:33:17.813Z,15.23
2022-11-09T19:36:31.261Z,14.63
2022-11-09T19:39:03.823Z,14.02
2022-11-09T20:20:36.040Z,7.28
2022-11-09T21:05:31.904Z,10.27
2022-11-09T21:08:35.496Z,10.68
2022-11-09T21:11:20.820Z,9.50
2022-11-09T21:52:44.588Z,9.65
2022-11-09T21:55:16.464Z,10.27
2022-11-09T21:57:46.562Z,8.90
2022-11-09T22:00:17.469Z,10.15
2022-11-09T22:02:45.910Z,9.48
2022-11-09T22:05:14.969Z,9.93
2022-11-09T22:07:46.303Z,9.65
2022-11-09T22:10:13.954Z,10.00
2022-11-09T22:12:59.619Z,9.25
2022-11-09T22:15:59.954Z,9.20
2022-11-09T22:18:52.852Z,9.88
2022-11-09T22:21:24.527Z,10.80
2022-11-09T22:23:52.325Z,10.20
2022-11-09T22:26:20.067Z,9.90
2022-11-09T22:28:48.263Z,9.30
2022-11-09T22:31:17.974Z,9.45
2022-11-09T22:33:56.131Z,9.38
2022-11-09T22:39:09.021Z,8.50
2022-11-09T22:41:36.911Z,8.80
2022-11-09T22:46:59.369Z,7.88
2022-11-09T22:52:17.934Z,8.45
2022-11-09T22:54:47.858Z,8.30
2022-11-09T22:57:20.569Z,8.05
2022-11-09T22:59:48.869Z,9.15
2022-11-09T23:05:13.324Z,8.35
2022-11-09T23:07:43.206Z,8.82
2022-11-09T23:10:13.192Z,8.45
2022-11-09T23:21:24.162Z,8.02
2022-11-09T23:35:51.217Z,7.72
